createdAt,value
2023-04-18T00:00:25.531Z,6.30
2023-04-18T00:02:55.275Z,6.20
2023-04-18T00:05:23.116Z,6.10
2023-04-18T00:07:51.576Z,6.00
2023-04-18T00:10:19.170Z,6.20
2023-04-18T00:12:47.307Z,6.10
2023-04-18T00:15:14.789Z,6.10
2023-04-18T00:17:42.301Z,6.10
2023-04-18T00:20:13.589Z,6.10
2023-04-18T00:22:42.742Z,6.10
2023-04-18T00:25:11.516Z,5.50
2023-04-18T00:27:39.675Z,6.30
2023-04-18T00:30:08.372Z,6.20
2023-04-18T00:32:36.017Z,6.10
2023-04-18T00:35:04.182Z,6.20
2023-04-18T00:37:31.496Z,6.10
2023-04-18T00:39:58.949Z,6.30
2023-04-18T00:42:27.950Z,6.00
2023-04-18T00:44:55.465Z,6.10
2023-04-18T00:47:22.857Z,6.20
2023-04-18T00:49:50.432Z,6.40
2023-04-18T00:52:18.950Z,6.00
2023-04-18T00:54:47.476Z,6.40
2023-04-18T00:57:15.416Z,6.10
2023-04-18T00:59:43.135Z,6.00
2023-04-18T01:02:10.674Z,6.50
2023-04-18T01:04:38.878Z,6.00
2023-04-18T01:07:06.743Z,5.90
2023-04-18T01:09:34.180Z,5.90
2023-04-18T01:12:02.063Z,5.70
2023-04-18T01:14:29.531Z,5.50
2023-04-18T01:16:58.843Z,5.50
2023-04-18T01:19:26.431Z,5.50
2023-04-18T01:21:54.415Z,5.60
2023-04-18T01:24:24.609Z,6.20
2023-04-18T01:26:52.164Z,5.60
2023-04-18T01:29:19.544Z,5.30
2023-04-18T01:31:47.353Z,5.30
2023-04-18T01:34:15.234Z,5.50
2023-04-18T01:36:42.956Z,5.20
2023-04-18T01:39:10.715Z,5.50
2023-04-18T01:41:38.625Z,5.20
2023-04-18T01:44:05.965Z,5.10
2023-04-18T01:46:33.394Z,5.50
2023-04-18T01:49:00.919Z,5.10
2023-04-18T01:51:28.550Z,5.00
2023-04-18T01:53:56.298Z,5.00
2023-04-18T01:56:23.815Z,5.00
2023-04-18T01:58:51.203Z,5.00
2023-04-18T02:01:18.684Z,4.80
2023-04-18T02:03:46.526Z,4.80
2023-04-18T02:06:14.107Z,4.80
2023-04-18T02:08:41.691Z,4.70
2023-04-18T02:11:09.071Z,4.90
2023-04-18T02:13:36.596Z,5.10
2023-04-18T02:16:04.038Z,4.70
2023-04-18T02:18:34.651Z,3.80
2023-04-18T02:21:02.170Z,4.70
2023-04-18T02:23:29.494Z,4.70
2023-04-18T02:25:56.995Z,5.00
2023-04-18T02:28:24.491Z,4.60
2023-04-18T02:30:52.088Z,4.40
2023-04-18T02:33:19.772Z,4.70
2023-04-18T02:35:47.340Z,4.40
2023-04-18T02:38:14.664Z,4.40
2023-04-18T02:40:42.185Z,4.30
2023-04-18T02:43:09.624Z,4.30
2023-04-18T02:45:37.100Z,4.40
2023-04-18T02:48:04.687Z,4.30
2023-04-18T02:50:32.374Z,4.30
2023-04-18T02:52:59.762Z,4.20
2023-04-18T02:55:27.108Z,5.30
2023-04-18T02:57:58.070Z,5.90
2023-04-18T03:00:25.684Z,4.20
2023-04-18T03:02:53.635Z,4.20
2023-04-18T03:05:22.011Z,4.50
2023-04-18T03:07:49.396Z,4.10
2023-04-18T03:10:16.985Z,4.20
2023-04-18T03:12:44.444Z,4.10
2023-04-18T03:15:11.915Z,4.60
2023-04-18T03:17:39.679Z,4.00
2023-04-18T03:20:08.076Z,4.30
2023-04-18T03:22:35.506Z,4.10
2023-04-18T03:25:04.652Z,4.90
2023-04-18T03:27:32.120Z,4.10
2023-04-18T03:29:59.550Z,4.20
2023-04-18T03:32:27.199Z,4.00
2023-04-18T03:34:54.572Z,4.50
2023-04-18T03:37:22.030Z,3.90
2023-04-18T03:39:49.516Z,4.00
2023-04-18T03:42:16.953Z,4.10
2023-04-18T03:44:44.317Z,5.10
2023-04-18T03:47:11.754Z,4.00
2023-04-18T03:49:40.592Z,4.20
2023-04-18T03:52:08.105Z,4.80
2023-04-18T03:54:35.545Z,5.50
2023-04-18T03:57:03.342Z,4.90
2023-04-18T03:59:31.017Z,4.00
2023-04-18T04:01:58.488Z,4.40
2023-04-18T04:04:26.539Z,4.00
2023-04-18T04:06:54.426Z,4.40
2023-04-18T04:09:21.913Z,4.30
2023-04-18T04:11:49.612Z,4.20
2023-04-18T04:14:17.078Z,4.40
2023-04-18T04:16:44.652Z,4.20
2023-04-18T04:19:12.220Z,5.20
2023-04-18T04:21:39.916Z,5.90
2023-04-18T04:24:07.969Z,4.30
2023-04-18T04:26:36.042Z,4.30
2023-04-18T04:29:03.814Z,4.40
2023-04-18T04:31:32.052Z,4.40
2023-04-18T04:33:59.432Z,4.90
2023-04-18T04:36:27.312Z,4.70
2023-04-18T04:38:54.831Z,4.80
2023-04-18T04:41:22.990Z,4.90
2023-04-18T04:43:51.377Z,4.90
2023-04-18T04:46:20.278Z,5.40
2023-04-18T04:48:47.803Z,5.00
2023-04-18T04:51:15.317Z,5.20
2023-04-18T04:53:42.891Z,4.70
2023-04-18T04:56:10.361Z,5.20
2023-04-18T04:58:37.745Z,6.40
2023-04-18T05:01:07.967Z,5.10
2023-04-18T05:03:36.895Z,5.20
2023-04-18T05:06:07.700Z,3.60
2023-04-18T05:08:35.301Z,5.30
2023-04-18T05:11:03.674Z,5.30
2023-04-18T05:13:36.668Z,5.30
2023-04-18T05:16:08.329Z,5.40
2023-04-18T05:18:39.204Z,5.50
2023-04-18T05:21:06.776Z,6.10
2023-04-18T05:23:41.609Z,5.10
2023-04-18T05:26:09.249Z,5.60
2023-04-18T05:28:39.556Z,6.60
2023-04-18T05:31:07.091Z,5.60
2023-04-18T05:33:34.578Z,5.60
2023-04-18T05:36:02.158Z,5.70
2023-04-18T05:38:29.585Z,5.60
2023-04-18T05:41:00.314Z,6.10
2023-04-18T05:43:27.827Z,6.60
2023-04-18T05:45:57.654Z,5.70
2023-04-18T05:48:25.387Z,5.60
2023-04-18T05:50:52.770Z,5.80
2023-04-18T05:53:20.661Z,6.00
2023-04-18T05:55:51.795Z,6.10
2023-04-18T05:58:19.869Z,6.20
2023-04-18T06:00:48.685Z,6.30
2023-04-18T06:03:16.550Z,6.20
2023-04-18T06:05:44.676Z,6.40
2023-04-18T06:08:22.593Z,6.30
2023-04-18T06:10:50.012Z,6.60
2023-04-18T06:13:17.612Z,6.60
2023-04-18T06:15:45.329Z,6.80
2023-04-18T06:18:13.154Z,7.00
2023-04-18T06:20:46.562Z,7.10
2023-04-18T06:23:14.446Z,7.40
2023-04-18T06:25:45.996Z,7.40
2023-04-18T06:28:14.045Z,7.80
2023-04-18T06:30:41.999Z,7.10
2023-04-18T06:33:11.362Z,7.30
2023-04-18T06:35:39.892Z,7.60
2023-04-18T06:38:07.772Z,7.70
2023-04-18T06:40:35.612Z,7.60
2023-04-18T06:43:13.477Z,7.70
2023-04-18T06:45:44.450Z,7.50
2023-04-18T06:48:19.707Z,7.70
2023-04-18T06:50:48.596Z,7.60
2023-04-18T06:53:18.756Z,7.80
2023-04-18T06:55:46.628Z,7.80
2023-04-18T06:58:16.568Z,7.70
2023-04-18T07:00:49.084Z,7.70
2023-04-18T07:03:16.933Z,8.20
2023-04-18T07:05:46.059Z,8.00
2023-04-18T07:08:14.526Z,8.00
2023-04-18T07:10:43.730Z,8.00
2023-04-18T07:13:11.105Z,8.30
2023-04-18T07:15:44.924Z,8.10
2023-04-18T07:18:14.551Z,8.10
2023-04-18T07:20:45.598Z,8.10
2023-04-18T07:23:16.678Z,8.60
2023-04-18T07:25:52.979Z,8.40
2023-04-18T07:28:24.789Z,8.70
2023-04-18T07:30:53.420Z,8.70
2023-04-18T07:33:21.396Z,8.90
2023-04-18T07:35:50.653Z,9.00
2023-04-18T07:38:21.872Z,9.80
2023-04-18T07:41:00.010Z,9.30
2023-04-18T07:43:27.793Z,9.30
2023-04-18T07:45:55.774Z,9.40
2023-04-18T07:48:23.568Z,9.30
2023-04-18T07:50:53.387Z,9.60
2023-04-18T07:53:22.220Z,9.70
2023-04-18T07:55:57.787Z,9.70
2023-04-18T07:58:31.450Z,9.80
2023-04-18T08:00:59.330Z,9.70
2023-04-18T08:03:28.700Z,10.00
2023-04-18T08:06:05.681Z,10.20
2023-04-18T08:08:34.013Z,9.90
2023-04-18T08:11:02.300Z,9.80
2023-04-18T08:13:29.849Z,9.80
2023-04-18T08:16:00.816Z,9.30
2023-04-18T08:18:28.533Z,10.00
2023-04-18T08:20:57.378Z,10.00
2023-04-18T08:23:26.258Z,10.00
2023-04-18T08:25:54.731Z,10.80
2023-04-18T08:28:22.872Z,10.30
2023-04-18T08:31:49.155Z,10.30
2023-04-18T08:34:34.131Z,10.30
2023-04-18T08:37:03.536Z,10.50
2023-04-18T08:39:40.336Z,10.50
2023-04-18T08:42:11.392Z,10.50
2023-04-18T08:44:39.839Z,10.40
2023-04-18T09:27:14.614Z,11.10
2023-04-18T09:29:54.677Z,11.30
2023-04-18T09:32:31.302Z,12.10
2023-04-18T09:35:04.349Z,12.00
2023-04-18T09:37:34.330Z,11.90
2023-04-18T09:40:25.660Z,12.10
2023-04-18T09:46:04.727Z,12.00
2023-04-18T09:49:04.831Z,11.90
2023-04-18T09:51:34.078Z,12.20
2023-04-18T09:54:12.296Z,12.30
2023-04-18T10:03:28.407Z,12.80
2023-04-18T10:05:59.442Z,13.30
2023-04-18T10:08:29.325Z,13.80
2023-04-18T10:10:59.962Z,13.70
2023-04-18T10:13:29.058Z,13.90
2023-04-18T10:15:59.008Z,14.00
2023-04-18T10:18:32.943Z,14.20
2023-04-18T10:21:07.625Z,14.40
2023-04-18T10:23:54.125Z,14.60
2023-04-18T10:26:22.716Z,15.00
2023-04-18T10:28:55.210Z,15.20
2023-04-18T10:31:30.440Z,15.50
2023-04-18T10:34:33.003Z,15.30
2023-04-18T10:37:09.636Z,15.00
2023-04-18T10:39:58.675Z,15.10
2023-04-18T10:42:56.302Z,14.70
2023-04-18T10:45:25.633Z,14.30
2023-04-18T10:48:30.557Z,14.10
2023-04-18T10:51:27.688Z,14.60
2023-04-18T10:53:59.204Z,14.80
2023-04-18T10:56:30.575Z,14.70
2023-04-18T10:59:05.388Z,14.90
2023-04-18T11:01:38.283Z,14.20
2023-04-18T11:04:13.519Z,14.60
2023-04-18T11:06:49.428Z,14.20
2023-04-18T11:09:17.020Z,15.00
2023-04-18T11:11:45.802Z,15.20
2023-04-18T11:18:04.267Z,14.80
2023-04-18T11:20:39.300Z,15.20
2023-04-18T11:23:27.505Z,15.30
2023-04-18T11:26:20.217Z,14.90
2023-04-18T11:28:55.254Z,15.20
2023-04-18T11:31:49.773Z,15.50
2023-04-18T11:34:17.918Z,16.30
2023-04-18T11:36:55.096Z,15.50
2023-04-18T11:39:26.877Z,14.80
2023-04-18T11:41:57.471Z,15.20
2023-04-18T11:44:27.960Z,15.10
2023-04-18T11:46:55.648Z,14.70
2023-04-18T11:49:35.131Z,16.10
2023-04-18T11:52:14.537Z,16.00
2023-04-18T11:54:46.994Z,16.10
2023-04-18T11:57:30.555Z,15.80
2023-04-18T12:00:00.296Z,15.60
2023-04-18T12:02:47.650Z,15.70
2023-04-18T12:05:38.897Z,15.80
2023-04-18T12:08:08.483Z,15.80
2023-04-18T12:10:38.722Z,16.00
2023-04-18T12:13:09.062Z,16.30
2023-04-18T12:15:44.917Z,16.30
2023-04-18T12:18:14.434Z,16.20
2023-04-18T12:20:47.562Z,15.90
2023-04-18T12:23:34.504Z,15.90
2023-04-18T12:26:06.746Z,15.80
2023-04-18T12:28:35.808Z,15.70
2023-04-18T12:31:06.814Z,15.70
2023-04-18T12:33:36.981Z,15.40
2023-04-18T12:36:06.340Z,14.90
2023-04-18T12:38:34.565Z,14.70
2023-04-18T12:41:02.336Z,14.40
2023-04-18T12:43:29.788Z,14.70
2023-04-18T12:45:57.376Z,14.80
2023-04-18T12:48:25.161Z,14.50
2023-04-18T12:50:52.631Z,14.50
2023-04-18T12:53:20.364Z,14.40
2023-04-18T12:55:47.750Z,14.70
2023-04-18T12:58:18.816Z,14.90
2023-04-18T13:00:46.683Z,14.80
2023-04-18T13:03:17.362Z,14.60
2023-04-18T13:05:44.923Z,14.70
2023-04-18T13:08:17.045Z,14.40
2023-04-18T13:10:47.536Z,14.30
2023-04-18T13:13:15.213Z,14.60
2023-04-18T13:15:42.742Z,14.10
2023-04-18T13:18:10.412Z,14.10
2023-04-18T13:20:37.881Z,14.00
2023-04-18T13:23:05.951Z,13.80
2023-04-18T13:25:34.190Z,13.70
2023-04-18T13:28:04.976Z,13.70
2023-04-18T13:30:32.772Z,13.80
2023-04-18T13:33:03.164Z,13.60
2023-04-18T13:35:30.748Z,13.70
2023-04-18T13:37:58.475Z,13.80
2023-04-18T13:40:26.673Z,13.80
2023-04-18T13:42:54.149Z,13.80
2023-04-18T13:45:21.576Z,13.70
2023-04-18T13:47:48.907Z,13.50
2023-04-18T13:50:16.579Z,13.30
2023-04-18T13:52:44.277Z,13.40
2023-04-18T13:55:12.521Z,13.50
2023-04-18T13:57:41.503Z,13.50
2023-04-18T14:00:10.002Z,13.70
2023-04-18T14:02:37.925Z,13.80
2023-04-18T14:05:06.396Z,13.70
2023-04-18T14:07:34.115Z,13.60
2023-04-18T14:10:01.449Z,13.50
2023-04-18T14:12:28.810Z,13.50
2023-04-18T14:14:57.358Z,13.50
2023-04-18T14:17:24.751Z,13.50
2023-04-18T14:19:52.213Z,13.50
2023-04-18T14:22:19.633Z,13.60
2023-04-18T14:24:47.048Z,13.60
2023-04-18T14:27:14.653Z,13.60
2023-04-18T14:29:42.270Z,13.50
2023-04-18T14:32:09.961Z,13.50
2023-04-18T14:34:38.957Z,13.50
2023-04-18T14:37:06.663Z,13.50
2023-04-18T14:39:34.222Z,13.60
2023-04-18T14:42:01.804Z,13.50
2023-04-18T14:44:31.716Z,13.50
2023-04-18T14:46:59.461Z,13.40
2023-04-18T14:49:26.913Z,13.30
2023-04-18T14:51:54.498Z,13.40
2023-04-18T14:54:22.049Z,13.40
2023-04-18T14:56:49.848Z,13.40
2023-04-18T14:59:17.350Z,13.40
2023-04-18T15:01:45.137Z,13.50
2023-04-18T15:04:13.080Z,13.40
2023-04-18T15:06:40.870Z,13.60
2023-04-18T15:09:08.677Z,13.30
2023-04-18T15:11:36.115Z,13.70
2023-04-18T15:14:03.800Z,13.40
2023-04-18T15:16:32.177Z,13.40
2023-04-18T15:19:00.542Z,14.00
2023-04-18T15:21:28.091Z,13.40
2023-04-18T15:23:55.625Z,13.10
2023-04-18T15:26:24.502Z,13.60
2023-04-18T15:28:56.990Z,13.20
2023-04-18T15:31:25.413Z,13.30
2023-04-18T15:33:52.891Z,13.20
2023-04-18T15:36:20.261Z,13.20
2023-04-18T15:38:47.670Z,12.40
2023-04-18T15:41:15.087Z,13.10
2023-04-18T15:43:45.686Z,14.10
2023-04-18T15:46:13.306Z,13.20
2023-04-18T15:48:40.863Z,13.20
2023-04-18T15:51:08.309Z,13.20
2023-04-18T15:53:35.768Z,13.10
2023-04-18T15:56:03.553Z,13.10
2023-04-18T15:58:31.193Z,13.20
2023-04-18T16:00:58.973Z,13.30
2023-04-18T16:03:27.115Z,13.10
2023-04-18T16:05:54.743Z,13.10
2023-04-18T16:08:22.082Z,13.10
2023-04-18T16:10:52.384Z,12.90
2023-04-18T16:13:20.152Z,13.00
2023-04-18T16:15:48.345Z,13.10
2023-04-18T16:18:15.786Z,13.00
2023-04-18T16:20:43.142Z,12.90
2023-04-18T16:23:10.706Z,12.90
2023-04-18T16:25:38.074Z,12.50
2023-04-18T16:28:05.781Z,12.90
2023-04-18T16:30:33.133Z,12.80
2023-04-18T16:33:00.657Z,12.70
2023-04-18T16:35:28.188Z,12.60
2023-04-18T16:37:55.699Z,12.90
2023-04-18T16:40:23.319Z,12.90
2023-04-18T16:42:52.936Z,12.40
2023-04-18T16:45:20.410Z,12.50
2023-04-18T16:47:48.029Z,12.50
2023-04-18T16:50:15.468Z,12.20
2023-04-18T16:52:43.140Z,12.50
2023-04-18T16:55:11.150Z,12.50
2023-04-18T16:57:38.956Z,12.50
2023-04-18T17:00:07.360Z,12.50
2023-04-18T17:02:35.331Z,12.40
2023-04-18T17:05:03.053Z,12.40
2023-04-18T17:07:31.839Z,12.80
2023-04-18T17:09:59.212Z,12.30
2023-04-18T17:12:27.130Z,12.00
2023-04-18T17:14:54.488Z,12.00
2023-04-18T17:17:23.837Z,11.90
2023-04-18T17:19:51.267Z,12.00
2023-04-18T17:22:18.630Z,11.80
2023-04-18T17:24:46.078Z,11.80
2023-04-18T17:27:14.142Z,11.80
2023-04-18T17:29:41.755Z,11.60
2023-04-18T17:32:09.436Z,11.70
2023-04-18T17:34:36.765Z,11.80
2023-04-18T17:37:05.460Z,11.70
2023-04-18T17:39:33.022Z,11.70
2023-04-18T17:42:01.159Z,11.60
2023-04-18T17:44:28.759Z,11.40
2023-04-18T17:46:56.112Z,11.30
2023-04-18T17:49:23.567Z,11.40
2023-04-18T17:51:51.203Z,11.00
2023-04-18T17:54:18.535Z,11.20
2023-04-18T17:56:46.706Z,11.20
2023-04-18T17:59:14.486Z,11.10
2023-04-18T18:01:43.538Z,11.20
2023-04-18T18:04:11.261Z,11.10
2023-04-18T18:06:38.878Z,11.10
2023-04-18T18:09:07.093Z,11.10
2023-04-18T18:11:34.594Z,11.00
2023-04-18T18:14:02.148Z,11.00
2023-04-18T18:16:29.619Z,11.30
2023-04-18T18:18:58.233Z,10.80
2023-04-18T18:21:26.554Z,10.70
2023-04-18T18:23:54.115Z,10.60
2023-04-18T18:26:21.450Z,10.60
2023-04-18T18:28:49.041Z,10.50
2023-04-18T18:31:17.670Z,10.50
2023-04-18T18:33:45.538Z,10.90
2023-04-18T18:36:12.892Z,10.30
2023-04-18T18:38:40.403Z,10.30
2023-04-18T18:41:08.362Z,10.40
2023-04-18T18:43:35.887Z,10.40
2023-04-18T18:46:03.377Z,10.30
2023-04-18T18:48:32.947Z,10.10
2023-04-18T18:51:00.652Z,9.90
2023-04-18T18:53:30.908Z,9.70
2023-04-18T18:55:58.431Z,10.20
2023-04-18T18:58:25.969Z,9.50
2023-04-18T19:00:54.537Z,9.50
2023-04-18T19:03:22.598Z,9.40
2023-04-18T19:05:50.040Z,9.40
2023-04-18T19:08:17.394Z,9.30
2023-04-18T19:10:44.780Z,9.30
2023-04-18T19:13:12.131Z,9.30
2023-04-18T19:15:39.442Z,9.20
2023-04-18T19:18:06.902Z,9.20
2023-04-18T19:20:34.432Z,9.20
2023-04-18T19:23:02.653Z,9.30
2023-04-18T19:25:30.078Z,9.20
2023-04-18T19:27:58.761Z,9.10
2023-04-18T19:30:26.275Z,9.10
2023-04-18T19:32:53.850Z,9.00
2023-04-18T19:35:21.664Z,8.90
2023-04-18T19:37:48.976Z,8.90
2023-04-18T19:40:16.731Z,8.90
2023-04-18T19:42:44.288Z,9.30
2023-04-18T19:45:12.240Z,8.70
2023-04-18T19:47:39.695Z,8.60
2023-04-18T19:50:08.099Z,8.60
2023-04-18T19:52:36.462Z,8.60
2023-04-18T19:55:04.097Z,8.50
2023-04-18T19:57:34.068Z,8.50
2023-04-18T20:00:01.651Z,8.50
2023-04-18T20:02:29.173Z,8.40
2023-04-18T20:04:56.946Z,8.30
2023-04-18T20:07:26.238Z,8.30
2023-04-18T20:09:54.043Z,8.30
2023-04-18T20:12:21.895Z,8.30
2023-04-18T20:14:49.554Z,7.90
2023-04-18T20:17:17.571Z,8.20
2023-04-18T20:19:47.209Z,8.00
2023-04-18T20:22:15.099Z,8.20
2023-04-18T20:24:42.819Z,8.20
2023-04-18T20:27:10.264Z,7.80
2023-04-18T20:29:37.709Z,8.00
2023-04-18T20:32:05.951Z,8.00
2023-04-18T20:34:33.727Z,8.00
2023-04-18T20:37:01.207Z,7.60
2023-04-18T20:39:28.556Z,7.90
2023-04-18T20:41:57.995Z,7.80
2023-04-18T20:44:25.558Z,7.70
2023-04-18T20:46:55.694Z,7.70
2023-04-18T20:49:23.213Z,7.70
2023-04-18T20:51:50.647Z,7.70
2023-04-18T20:54:18.105Z,7.60
2023-04-18T20:56:45.543Z,7.70
2023-04-18T20:59:12.986Z,7.60
2023-04-18T21:01:41.420Z,7.60
2023-04-18T21:04:09.028Z,7.60
2023-04-18T21:06:36.913Z,7.60
2023-04-18T21:09:04.360Z,7.60
2023-04-18T21:11:31.803Z,7.60
2023-04-18T21:13:59.292Z,7.70
2023-04-18T21:16:27.155Z,7.70
2023-04-18T21:18:55.293Z,7.70
2023-04-18T21:21:23.411Z,7.90
2023-04-18T21:23:50.893Z,7.80
2023-04-18T21:26:19.147Z,7.80
2023-04-18T21:29:01.000Z,7.90
2023-04-18T21:31:30.867Z,7.90
2023-04-18T21:34:00.048Z,7.80
2023-04-18T21:36:28.807Z,7.80
2023-04-18T21:38:57.921Z,7.80
2023-04-18T21:41:25.608Z,7.70
2023-04-18T21:43:53.588Z,7.70
2023-04-18T21:46:21.184Z,7.60
2023-04-18T21:48:49.120Z,7.60
2023-04-18T21:51:17.436Z,7.70
2023-04-18T21:53:45.027Z,7.70
2023-04-18T21:56:12.652Z,7.60
2023-04-18T21:58:40.081Z,8.00
2023-04-18T22:01:07.707Z,7.50
2023-04-18T22:03:36.341Z,7.40
2023-04-18T22:06:04.589Z,8.00
2023-04-18T22:08:32.166Z,7.30
2023-04-18T22:11:00.362Z,7.30
2023-04-18T22:13:33.550Z,7.10
2023-04-18T22:16:04.838Z,7.30
2023-04-18T22:18:34.118Z,7.20
2023-04-18T22:21:03.429Z,7.20
2023-04-18T22:23:31.474Z,7.20
2023-04-18T22:25:58.992Z,7.20
2023-04-18T22:28:28.076Z,7.90
2023-04-18T22:30:56.077Z,7.40
2023-04-18T22:33:26.182Z,7.20
2023-04-18T22:35:54.403Z,7.10
2023-04-18T22:38:21.753Z,7.10
2023-04-18T22:40:49.157Z,7.40
2023-04-18T22:43:16.992Z,7.40
2023-04-18T22:45:45.782Z,7.10
2023-04-18T22:48:13.594Z,7.10
2023-04-18T22:50:43.824Z,7.10
2023-04-18T22:53:14.364Z,7.00
2023-04-18T22:55:42.854Z,7.20
2023-04-18T22:58:11.089Z,6.90
2023-04-18T23:00:38.711Z,6.90
2023-04-18T23:03:06.310Z,7.00
2023-04-18T23:05:34.577Z,6.90
2023-04-18T23:08:02.572Z,7.00
2023-04-18T23:10:30.158Z,6.80
2023-04-18T23:12:57.671Z,6.80
2023-04-18T23:15:26.738Z,6.80
2023-04-18T23:17:54.483Z,6.90
2023-04-18T23:20:22.400Z,6.80
2023-04-18T23:22:51.823Z,6.60
2023-04-18T23:25:20.133Z,6.30
2023-04-18T23:27:48.173Z,6.60
2023-04-18T23:30:15.598Z,6.50
2023-04-18T23:32:43.045Z,6.60
2023-04-18T23:35:11.938Z,6.50
2023-04-18T23:37:39.297Z,6.50
2023-04-18T23:40:08.084Z,6.40
2023-04-18T23:42:36.128Z,6.50
2023-04-18T23:45:04.376Z,6.60
2023-04-18T23:47:32.164Z,6.40
2023-04-18T23:49:59.579Z,6.60
2023-04-18T23:52:27.015Z,6.50
2023-04-18T23:54:54.479Z,6.50
2023-04-18T23:57:21.948Z,6.50
2023-04-18T23:59:49.239Z,6.40
